createdAt,value
2023-05-14T00:02:06.492Z,7.43
2023-05-14T00:04:33.726Z,7.85
2023-05-14T00:07:00.943Z,7.53
2023-05-14T00:09:28.053Z,8.35
2023-05-14T00:11:54.818Z,8.05
2023-05-14T00:14:22.016Z,7.15
2023-05-14T00:16:48.930Z,7.40
2023-05-14T00:19:15.970Z,7.15
2023-05-14T00:21:42.775Z,7.47
2023-05-14T00:24:09.868Z,8.38
2023-05-14T00:26:36.562Z,7.85
2023-05-14T00:29:03.553Z,7.68
2023-05-14T00:31:30.598Z,7.47
2023-05-14T00:33:57.622Z,8.77
2023-05-14T00:36:24.310Z,7.75
2023-05-14T00:38:51.383Z,7.90
2023-05-14T00:41:18.156Z,7.63
2023-05-14T00:43:45.363Z,7.72
2023-05-14T00:46:12.585Z,6.95
2023-05-14T00:48:39.669Z,7.32
2023-05-14T00:51:06.727Z,6.97
2023-05-14T00:53:33.838Z,7.20
2023-05-14T00:56:00.739Z,8.50
2023-05-14T00:58:27.713Z,7.53
2023-05-14T01:00:54.482Z,7.85
2023-05-14T01:03:21.627Z,7.85
2023-05-14T01:06:06.829Z,6.88
2023-05-14T01:08:59.596Z,7.03
2023-05-14T01:11:47.010Z,7.68
2023-05-14T01:14:21.617Z,7.93
2023-05-14T01:16:53.179Z,7.57
2023-05-14T01:19:43.988Z,7.60
2023-05-14T01:22:11.175Z,7.50
2023-05-14T01:24:38.232Z,7.55
2023-05-14T01:27:08.039Z,7.13
2023-05-14T01:29:35.469Z,7.45
2023-05-14T01:32:02.233Z,8.23
2023-05-14T01:34:29.261Z,7.15
2023-05-14T01:36:56.048Z,6.80
2023-05-14T01:39:23.252Z,7.00
2023-05-14T01:41:49.956Z,6.50
2023-05-14T01:44:17.171Z,6.90
2023-05-14T01:46:43.886Z,6.75
2023-05-14T01:49:10.954Z,7.28
2023-05-14T01:51:37.909Z,7.32
2023-05-14T01:54:05.010Z,7.40
2023-05-14T01:56:31.713Z,6.97
2023-05-14T01:58:58.705Z,7.53
2023-05-14T02:01:26.264Z,7.25
2023-05-14T02:03:53.351Z,6.85
2023-05-14T02:06:20.076Z,7.13
2023-05-14T02:08:47.136Z,7.82
2023-05-14T02:11:14.008Z,7.32
2023-05-14T02:13:41.140Z,6.40
2023-05-14T02:16:08.213Z,6.85
2023-05-14T02:18:35.409Z,7.18
2023-05-14T02:21:02.232Z,7.05
2023-05-14T02:23:40.512Z,7.03
2023-05-14T02:26:09.642Z,6.25
2023-05-14T02:28:36.844Z,6.82
2023-05-14T02:31:03.602Z,7.35
2023-05-14T02:33:30.852Z,6.97
2023-05-14T02:35:57.622Z,6.95
2023-05-14T02:38:25.724Z,7.22
2023-05-14T02:40:52.604Z,6.63
2023-05-14T02:43:19.629Z,7.07
2023-05-14T02:45:46.944Z,7.18
2023-05-14T02:48:14.221Z,6.53
2023-05-14T02:50:40.932Z,7.13
2023-05-14T02:53:08.736Z,7.40
2023-05-14T02:55:35.632Z,8.13
2023-05-14T02:58:02.654Z,7.32
2023-05-14T03:00:29.392Z,6.97
2023-05-14T03:02:56.806Z,7.15
2023-05-14T03:05:23.958Z,7.25
2023-05-14T03:07:53.754Z,6.95
2023-05-14T03:10:20.837Z,6.55
2023-05-14T03:12:47.958Z,7.13
2023-05-14T03:15:14.703Z,6.55
2023-05-14T03:17:41.847Z,6.68
2023-05-14T03:20:08.939Z,7.45
2023-05-14T03:22:35.906Z,7.07
2023-05-14T03:25:02.654Z,7.03
2023-05-14T03:27:29.613Z,7.07
2023-05-14T03:29:56.298Z,6.68
2023-05-14T03:32:23.369Z,8.00
2023-05-14T03:34:51.635Z,7.22
2023-05-14T03:37:18.629Z,6.97
2023-05-14T03:39:45.429Z,7.60
2023-05-14T03:42:12.627Z,7.55
2023-05-14T03:44:39.313Z,7.93
2023-05-14T03:47:06.356Z,6.88
2023-05-14T03:49:33.261Z,7.70
2023-05-14T03:52:00.371Z,7.00
2023-05-14T03:54:27.132Z,7.97
2023-05-14T03:56:54.174Z,8.85
2023-05-14T03:59:20.857Z,7.88
2023-05-14T04:01:47.933Z,8.25
2023-05-14T04:04:14.759Z,7.45
2023-05-14T04:06:41.814Z,9.15
2023-05-14T04:09:08.512Z,7.47
2023-05-14T04:11:35.570Z,8.07
2023-05-14T04:14:02.394Z,8.30
2023-05-14T04:16:29.501Z,7.85
2023-05-14T04:18:56.304Z,8.35
2023-05-14T04:21:23.346Z,9.38
2023-05-14T04:23:51.632Z,8.40
2023-05-14T04:26:18.648Z,8.68
2023-05-14T04:28:45.738Z,8.18
2023-05-14T04:31:12.832Z,8.75
2023-05-14T04:33:39.960Z,8.80
2023-05-14T04:36:07.267Z,8.85
2023-05-14T04:38:34.070Z,9.35
2023-05-14T04:41:01.051Z,8.57
2023-05-14T04:43:27.713Z,9.43
2023-05-14T04:45:54.789Z,8.75
2023-05-14T04:48:21.722Z,9.13
2023-05-14T04:50:48.758Z,9.82
2023-05-14T04:53:15.477Z,8.40
2023-05-14T04:55:42.512Z,8.68
2023-05-14T04:58:09.281Z,8.77
2023-05-14T05:00:36.374Z,8.18
2023-05-14T05:03:03.423Z,8.52
2023-05-14T05:05:30.695Z,9.55
2023-05-14T05:07:57.401Z,8.45
2023-05-14T05:10:24.714Z,7.85
2023-05-14T05:12:51.657Z,7.78
2023-05-14T05:15:18.680Z,9.15
2023-05-14T05:17:45.875Z,9.55
2023-05-14T05:20:13.364Z,9.57
2023-05-14T05:22:40.169Z,9.50
2023-05-14T05:25:09.075Z,8.90
2023-05-14T05:27:35.890Z,9.20
2023-05-14T05:30:04.021Z,8.93
2023-05-14T05:32:31.138Z,9.55
2023-05-14T05:34:58.219Z,9.30
2023-05-14T05:37:24.932Z,9.57
2023-05-14T05:39:52.039Z,9.38
2023-05-14T05:42:18.746Z,9.13
2023-05-14T05:44:45.866Z,9.68
2023-05-14T05:47:12.584Z,9.85
2023-05-14T05:49:39.570Z,8.57
2023-05-14T05:52:06.494Z,9.23
2023-05-14T05:54:33.728Z,8.85
2023-05-14T05:57:00.727Z,9.48
2023-05-14T05:59:27.788Z,9.60
2023-05-14T06:01:54.552Z,8.82
2023-05-14T06:04:21.680Z,8.30
2023-05-14T06:06:48.410Z,8.52
2023-05-14T06:09:16.031Z,9.02
2023-05-14T06:11:42.811Z,7.88
2023-05-14T06:14:09.844Z,9.13
2023-05-14T06:16:36.711Z,9.10
2023-05-14T06:19:03.799Z,8.27
2023-05-14T06:21:30.625Z,8.45
2023-05-14T06:23:57.670Z,7.53
2023-05-14T06:26:24.409Z,7.88
2023-05-14T06:28:51.439Z,8.00
2023-05-14T06:31:18.755Z,8.57
2023-05-14T06:33:45.745Z,7.88
2023-05-14T06:36:12.455Z,9.00
2023-05-14T06:38:39.505Z,8.38
2023-05-14T06:41:06.233Z,8.73
2023-05-14T06:43:33.307Z,8.48
2023-05-14T06:46:00.291Z,8.02
2023-05-14T06:48:29.447Z,7.45
2023-05-14T06:50:56.323Z,8.30
2023-05-14T06:53:23.408Z,7.28
2023-05-14T06:55:50.808Z,7.57
2023-05-14T06:58:17.860Z,7.13
2023-05-14T07:00:44.615Z,7.20
2023-05-14T07:03:11.672Z,7.00
2023-05-14T07:05:38.489Z,7.05
2023-05-14T07:08:05.692Z,6.90
2023-05-14T07:10:32.759Z,7.15
2023-05-14T07:12:59.747Z,7.07
2023-05-14T07:15:26.537Z,7.75
2023-05-14T07:17:53.587Z,6.53
2023-05-14T07:20:20.546Z,6.22
2023-05-14T07:22:48.410Z,6.43
2023-05-14T07:25:15.218Z,5.93
2023-05-14T07:27:42.208Z,6.20
2023-05-14T07:30:09.191Z,6.72
2023-05-14T07:32:36.190Z,6.10
2023-05-14T07:35:03.042Z,5.93
2023-05-14T07:37:30.129Z,5.78
2023-05-14T07:39:56.861Z,5.50
2023-05-14T07:42:35.027Z,5.85
2023-05-14T07:45:03.586Z,5.50
2023-05-14T07:47:30.830Z,5.75
2023-05-14T07:49:57.776Z,5.50
2023-05-14T07:52:24.977Z,5.32
2023-05-14T07:54:52.068Z,5.60
2023-05-14T07:57:19.869Z,4.90
2023-05-14T07:59:47.799Z,4.82
2023-05-14T08:02:16.225Z,4.35
2023-05-14T08:04:43.211Z,5.22
2023-05-14T08:07:10.332Z,4.60
2023-05-14T08:09:37.149Z,4.60
2023-05-14T08:12:04.498Z,4.05
2023-05-14T08:14:31.200Z,4.50
2023-05-14T08:16:58.355Z,4.60
2023-05-14T08:19:27.383Z,4.13
2023-05-14T08:21:54.627Z,4.15
2023-05-14T08:24:21.436Z,4.60
2023-05-14T08:26:48.528Z,4.07
2023-05-14T08:29:16.589Z,4.53
2023-05-14T08:31:44.060Z,4.38
2023-05-14T08:34:10.889Z,4.05
2023-05-14T08:36:38.828Z,4.57
2023-05-14T08:39:07.780Z,4.07
2023-05-14T08:41:35.045Z,4.05
2023-05-14T08:44:14.955Z,4.13
2023-05-14T08:46:42.009Z,4.45
2023-05-14T08:49:16.817Z,4.43
2023-05-14T08:54:17.784Z,3.90
2023-05-14T08:56:46.322Z,3.33
2023-05-14T08:59:13.320Z,3.72
2023-05-14T09:01:44.618Z,3.38
2023-05-14T09:04:11.547Z,3.80
2023-05-14T09:06:38.682Z,3.55
2023-05-14T09:09:05.930Z,3.08
2023-05-14T09:11:33.075Z,4.13
2023-05-14T09:13:59.836Z,3.55
2023-05-14T09:16:27.012Z,3.35
2023-05-14T09:18:54.330Z,3.33
2023-05-14T09:21:21.383Z,3.03
2023-05-14T09:23:49.774Z,3.58
2023-05-14T09:26:17.590Z,3.55
2023-05-14T09:28:44.338Z,3.58
2023-05-14T09:31:11.460Z,3.88
2023-05-14T09:33:38.194Z,3.17
2023-05-14T09:36:05.654Z,3.40
2023-05-14T09:38:32.837Z,3.35
2023-05-14T09:41:00.238Z,2.60
2023-05-14T09:43:26.942Z,3.47
2023-05-14T09:45:54.039Z,3.50
2023-05-14T09:48:22.443Z,3.22
2023-05-14T09:50:49.695Z,3.42
2023-05-14T09:53:17.695Z,3.30
2023-05-14T09:55:45.290Z,3.35
2023-05-14T09:58:14.403Z,3.03
2023-05-14T10:00:44.560Z,3.13
2023-05-14T10:03:13.259Z,3.13
2023-05-14T10:05:41.457Z,3.05
2023-05-14T10:08:35.225Z,3.33
2023-05-14T10:11:04.720Z,3.05
2023-05-14T10:13:33.673Z,3.47
2023-05-14T10:16:02.598Z,3.53
2023-05-14T10:18:31.190Z,3.05
2023-05-14T10:21:05.608Z,2.80
2023-05-14T10:23:32.759Z,2.80
2023-05-14T10:25:59.880Z,3.20
2023-05-14T10:28:27.145Z,2.63
2023-05-14T10:30:54.506Z,2.97
2023-05-14T10:33:21.367Z,2.97
2023-05-14T10:35:59.799Z,2.70
2023-05-14T10:38:33.684Z,3.13
2023-05-14T10:41:21.670Z,2.47
2023-05-14T10:43:48.445Z,2.65
2023-05-14T10:46:15.594Z,2.60
2023-05-14T10:48:43.225Z,2.50
2023-05-14T10:51:10.930Z,2.65
2023-05-14T10:53:39.571Z,2.55
2023-05-14T10:56:08.025Z,2.50
2023-05-14T10:58:38.449Z,2.40
2023-05-14T11:01:06.744Z,2.60
2023-05-14T11:03:38.560Z,2.55
2023-05-14T11:06:05.742Z,2.55
2023-05-14T11:08:32.448Z,2.47
2023-05-14T11:10:59.730Z,2.80
2023-05-14T11:13:26.682Z,3.08
2023-05-14T11:15:53.987Z,3.08
2023-05-14T11:18:31.036Z,2.53
2023-05-14T11:21:01.611Z,2.42
2023-05-14T11:23:28.679Z,2.92
2023-05-14T11:25:56.398Z,2.42
2023-05-14T11:28:23.631Z,2.90
2023-05-14T11:30:50.864Z,2.33
2023-05-14T11:33:17.872Z,2.38
2023-05-14T11:35:46.501Z,2.28
2023-05-14T11:38:19.496Z,2.42
2023-05-14T11:40:56.153Z,2.35
2023-05-14T11:43:23.875Z,2.65
2023-05-14T11:45:52.272Z,1.95
2023-05-14T11:48:19.965Z,2.10
2023-05-14T11:50:51.428Z,2.45
2023-05-14T11:53:29.707Z,1.60
2023-05-14T11:55:59.602Z,2.40
2023-05-14T11:58:26.435Z,2.20
2023-05-14T12:00:53.634Z,2.17
2023-05-14T12:03:26.412Z,2.47
2023-05-14T12:06:00.803Z,2.33
2023-05-14T12:08:31.383Z,2.35
2023-05-14T12:10:59.411Z,2.40
2023-05-14T12:13:29.846Z,1.70
2023-05-14T12:15:58.070Z,1.77
2023-05-14T12:18:25.690Z,1.80
2023-05-14T12:20:52.975Z,2.28
2023-05-14T12:23:46.213Z,2.28
2023-05-14T12:26:13.334Z,2.40
2023-05-14T12:28:43.649Z,1.90
2023-05-14T12:31:10.972Z,2.30
2023-05-14T12:33:37.800Z,2.35
2023-05-14T12:36:20.516Z,2.10
2023-05-14T12:38:47.823Z,2.47
2023-05-14T12:41:14.803Z,2.00
2023-05-14T12:43:44.793Z,1.83
2023-05-14T12:46:11.918Z,1.92
2023-05-14T12:48:38.636Z,1.90
2023-05-14T12:51:06.289Z,2.17
2023-05-14T12:53:33.935Z,2.00
2023-05-14T12:56:01.024Z,1.77
2023-05-14T12:58:27.755Z,1.55
2023-05-14T13:00:54.850Z,2.20
2023-05-14T13:03:21.690Z,1.80
2023-05-14T13:05:48.729Z,2.40
2023-05-14T13:08:17.820Z,1.58
2023-05-14T13:10:45.183Z,1.90
2023-05-14T13:13:11.974Z,1.90
2023-05-14T13:15:39.055Z,2.20
2023-05-14T13:18:05.981Z,1.90
2023-05-14T13:20:33.781Z,2.10
2023-05-14T13:23:00.694Z,1.88
2023-05-14T13:25:28.022Z,1.83
2023-05-14T13:27:55.166Z,1.90
2023-05-14T13:30:22.579Z,2.47
2023-05-14T13:32:49.458Z,1.70
2023-05-14T13:35:16.682Z,1.95
2023-05-14T13:37:43.729Z,1.92
2023-05-14T13:40:11.301Z,1.83
2023-05-14T13:42:39.883Z,1.67
2023-05-14T13:45:07.581Z,1.65
2023-05-14T13:47:34.442Z,1.60
2023-05-14T13:50:01.583Z,1.77
2023-05-14T13:52:28.462Z,1.48
2023-05-14T13:54:56.525Z,1.70
2023-05-14T13:57:23.371Z,1.75
2023-05-14T13:59:50.465Z,1.73
2023-05-14T14:02:17.831Z,1.85
2023-05-14T14:04:45.027Z,1.70
2023-05-14T14:07:11.840Z,1.77
2023-05-14T14:09:38.962Z,1.92
2023-05-14T14:12:06.227Z,1.90
2023-05-14T14:14:33.381Z,1.38
2023-05-14T14:17:00.158Z,1.52
2023-05-14T14:19:27.338Z,1.85
2023-05-14T14:21:54.184Z,1.30
2023-05-14T14:24:21.319Z,1.77
2023-05-14T14:26:48.694Z,1.75
2023-05-14T14:29:15.760Z,2.00
2023-05-14T14:31:44.507Z,1.40
2023-05-14T14:34:11.621Z,1.60
2023-05-14T14:36:38.464Z,1.95
2023-05-14T14:39:05.875Z,2.00
2023-05-14T14:41:32.626Z,1.70
2023-05-14T14:43:59.833Z,1.65
2023-05-14T14:46:27.025Z,1.60
2023-05-14T14:48:54.245Z,1.75
2023-05-14T14:51:21.190Z,1.58
2023-05-14T14:53:48.329Z,1.60
2023-05-14T14:56:15.688Z,1.73
2023-05-14T14:58:42.892Z,1.83
2023-05-14T15:01:09.818Z,1.80
2023-05-14T15:03:37.071Z,1.50
2023-05-14T15:06:04.182Z,1.50
2023-05-14T15:08:31.424Z,1.60
2023-05-14T15:10:59.371Z,1.52
2023-05-14T15:13:27.174Z,1.50
2023-05-14T15:15:54.070Z,1.83
2023-05-14T15:18:22.959Z,1.63
2023-05-14T15:20:50.048Z,1.83
2023-05-14T15:23:17.312Z,1.70
2023-05-14T15:25:44.355Z,1.95
2023-05-14T15:28:11.579Z,1.65
2023-05-14T15:30:38.417Z,1.70
2023-05-14T15:33:07.426Z,1.70
2023-05-14T15:35:34.278Z,1.55
2023-05-14T15:38:01.355Z,2.08
2023-05-14T15:40:28.247Z,1.88
2023-05-14T15:42:55.422Z,1.48
2023-05-14T15:45:22.259Z,1.48
2023-05-14T15:47:49.705Z,1.55
2023-05-14T15:50:16.466Z,1.55
2023-05-14T15:52:43.804Z,1.45
2023-05-14T15:55:10.878Z,1.95
2023-05-14T15:57:37.924Z,1.90
2023-05-14T16:00:14.426Z,1.98
2023-05-14T16:02:41.590Z,2.10
2023-05-14T16:05:08.738Z,1.70
2023-05-14T16:07:36.405Z,1.73
2023-05-14T16:10:03.652Z,1.70
2023-05-14T16:12:30.911Z,1.92
2023-05-14T16:14:57.800Z,1.58
2023-05-14T16:17:26.234Z,1.63
2023-05-14T16:19:54.646Z,1.95
2023-05-14T16:22:23.436Z,1.40
2023-05-14T16:24:50.206Z,1.63
2023-05-14T16:27:19.146Z,1.23
2023-05-14T16:29:46.059Z,1.65
2023-05-14T16:32:13.425Z,1.60
2023-05-14T16:34:40.663Z,1.80
2023-05-14T16:37:08.154Z,1.52
2023-05-14T16:39:34.960Z,1.63
2023-05-14T16:42:02.051Z,1.92
2023-05-14T16:44:30.249Z,1.90
2023-05-14T16:46:57.417Z,1.63
2023-05-14T16:49:24.357Z,1.80
2023-05-14T16:51:51.483Z,2.00
2023-05-14T16:54:18.331Z,1.67
2023-05-14T16:56:49.395Z,2.08
2023-05-14T16:59:16.472Z,1.70
2023-05-14T17:01:43.986Z,1.70
2023-05-14T17:04:10.888Z,2.15
2023-05-14T17:06:38.052Z,2.50
2023-05-14T17:09:05.267Z,2.33
2023-05-14T17:11:32.578Z,2.03
2023-05-14T17:13:59.276Z,2.47
2023-05-14T17:16:27.214Z,2.30
2023-05-14T17:18:56.519Z,1.90
2023-05-14T17:21:23.822Z,2.13
2023-05-14T17:23:50.783Z,2.17
2023-05-14T17:26:17.878Z,2.35
2023-05-14T17:28:46.204Z,2.30
2023-05-14T17:31:13.337Z,2.22
2023-05-14T17:33:40.237Z,2.33
2023-05-14T17:36:07.569Z,2.50
2023-05-14T17:38:34.796Z,2.70
2023-05-14T17:41:02.146Z,2.15
2023-05-14T17:43:29.044Z,2.35
2023-05-14T17:45:56.312Z,2.50
2023-05-14T17:48:24.122Z,2.78
2023-05-14T17:50:54.062Z,3.88
2023-05-14T17:53:21.190Z,5.03
2023-05-14T17:55:48.594Z,4.30
2023-05-14T17:58:16.221Z,5.40
2023-05-14T18:00:43.816Z,5.68
2023-05-14T18:03:11.314Z,5.43
2023-05-14T18:05:38.767Z,5.55
2023-05-14T18:08:06.777Z,5.30
2023-05-14T18:10:34.082Z,5.65
2023-05-14T18:13:00.944Z,5.60
2023-05-14T18:15:28.158Z,5.40
2023-05-14T18:17:55.086Z,6.50
2023-05-14T18:20:22.886Z,6.80
2023-05-14T18:22:50.723Z,7.40
2023-05-14T18:25:20.777Z,6.32
2023-05-14T18:27:48.193Z,6.70
2023-05-14T18:30:15.718Z,6.57
2023-05-14T18:32:44.173Z,6.68
2023-05-14T18:35:12.240Z,7.28
2023-05-14T18:37:39.343Z,7.00
2023-05-14T18:40:09.008Z,7.10
2023-05-14T18:42:36.118Z,6.57
2023-05-14T18:45:04.670Z,7.60
2023-05-14T18:47:33.384Z,6.68
2023-05-14T18:50:02.123Z,6.72
2023-05-14T18:52:29.336Z,7.30
2023-05-14T18:54:57.896Z,7.47
2023-05-14T18:57:26.176Z,8.05
2023-05-14T18:59:53.367Z,7.47
2023-05-14T19:02:21.512Z,7.43
2023-05-14T19:04:52.803Z,7.45
2023-05-14T19:07:25.103Z,7.20
2023-05-14T19:09:53.769Z,7.57
2023-05-14T19:12:21.800Z,6.97
2023-05-14T19:14:52.668Z,7.57
2023-05-14T19:17:21.670Z,8.23
2023-05-14T19:19:48.904Z,7.28
2023-05-14T19:22:15.814Z,7.47
2023-05-14T19:24:42.978Z,7.68
2023-05-14T19:27:10.095Z,7.00
2023-05-14T19:29:37.258Z,7.72
2023-05-14T19:32:06.208Z,7.60
2023-05-14T19:34:33.392Z,7.93
2023-05-14T19:37:00.614Z,7.85
2023-05-14T19:39:27.780Z,7.47
2023-05-14T19:41:54.653Z,7.32
2023-05-14T19:44:21.782Z,7.50
2023-05-14T19:46:48.746Z,7.97
2023-05-14T19:49:15.929Z,8.57
2023-05-14T19:51:42.862Z,8.45
2023-05-14T19:54:10.040Z,8.40
2023-05-14T19:56:36.913Z,8.10
2023-05-14T19:59:07.027Z,8.23
2023-05-14T20:01:34.846Z,8.43
2023-05-14T20:04:02.404Z,7.35
2023-05-14T20:06:29.969Z,8.13
2023-05-14T20:08:58.214Z,8.93
2023-05-14T20:11:24.986Z,8.38
2023-05-14T20:13:52.084Z,9.10
2023-05-14T20:16:19.034Z,8.43
2023-05-14T20:18:48.164Z,8.07
2023-05-14T20:21:15.007Z,9.32
2023-05-14T20:23:42.251Z,8.82
2023-05-14T20:26:09.223Z,8.23
2023-05-14T20:28:36.457Z,8.50
2023-05-14T20:31:04.141Z,8.77
2023-05-14T20:33:31.413Z,8.82
2023-05-14T20:35:58.330Z,8.88
2023-05-14T20:38:29.705Z,8.60
2023-05-14T20:40:56.556Z,9.00
2023-05-14T20:43:23.783Z,9.20
2023-05-14T20:45:50.596Z,9.15
2023-05-14T20:48:17.802Z,8.52
2023-05-14T20:50:44.699Z,8.82
2023-05-14T20:53:11.835Z,8.57
2023-05-14T20:55:41.229Z,8.60
2023-05-14T20:58:08.662Z,7.72
2023-05-14T21:00:35.465Z,7.95
2023-05-14T21:03:02.718Z,8.75
2023-05-14T21:05:29.661Z,7.97
2023-05-14T21:07:56.774Z,7.53
2023-05-14T21:10:23.946Z,8.13
2023-05-14T21:12:52.344Z,7.88
2023-05-14T21:15:19.108Z,7.57
2023-05-14T21:17:46.140Z,8.02
2023-05-14T21:20:15.429Z,8.00
2023-05-14T21:22:42.508Z,7.70
2023-05-14T21:25:09.703Z,7.25
2023-05-14T21:27:37.049Z,7.80
2023-05-14T21:30:04.077Z,7.25
2023-05-14T21:32:31.158Z,7.22
2023-05-14T21:34:57.959Z,7.40
2023-05-14T21:37:25.006Z,6.50
2023-05-14T21:39:51.697Z,6.72
2023-05-14T21:42:20.959Z,6.75
2023-05-14T21:44:47.807Z,7.07
2023-05-14T21:47:15.340Z,6.07
2023-05-14T21:49:42.476Z,5.78
2023-05-14T21:52:09.222Z,7.13
2023-05-14T21:54:36.232Z,6.53
2023-05-14T21:57:03.036Z,6.45
2023-05-14T21:59:30.031Z,6.50
2023-05-14T22:02:06.972Z,5.38
2023-05-14T22:04:35.359Z,6.47
2023-05-14T22:07:02.260Z,5.32
2023-05-14T22:09:30.387Z,6.15
2023-05-14T22:11:57.804Z,6.63
2023-05-14T22:14:26.564Z,6.45
2023-05-14T22:16:53.491Z,6.15
2023-05-14T22:19:20.543Z,5.75
2023-05-14T22:21:47.293Z,6.18
2023-05-14T22:24:14.346Z,5.65
2023-05-14T22:26:41.055Z,5.72
2023-05-14T22:29:08.123Z,6.22
2023-05-14T22:31:34.862Z,6.15
2023-05-14T22:34:01.866Z,5.20
2023-05-14T22:36:28.558Z,5.57
2023-05-14T22:38:55.652Z,5.13
2023-05-14T22:41:22.334Z,4.97
2023-05-14T22:43:49.502Z,5.05
2023-05-14T22:46:16.283Z,4.80
2023-05-14T22:48:43.376Z,5.15
2023-05-14T22:51:10.116Z,5.30
2023-05-14T22:53:37.185Z,4.97
2023-05-14T22:56:04.154Z,4.65
2023-05-14T22:58:31.169Z,5.10
2023-05-14T23:00:57.885Z,5.00
2023-05-14T23:03:24.908Z,5.03
2023-05-14T23:05:52.148Z,4.93
2023-05-14T23:08:19.226Z,4.57
2023-05-14T23:10:45.908Z,4.95
2023-05-14T23:13:12.932Z,4.65
2023-05-14T23:15:39.728Z,4.72
2023-05-14T23:18:07.807Z,4.60
2023-05-14T23:20:34.705Z,4.78
2023-05-14T23:23:01.722Z,4.18
2023-05-14T23:25:28.709Z,4.50
2023-05-14T23:27:55.769Z,4.35
2023-05-14T23:30:22.500Z,4.15
2023-05-14T23:32:49.602Z,3.97
2023-05-14T23:35:16.404Z,4.28
2023-05-14T23:37:47.208Z,4.55
2023-05-14T23:40:14.293Z,4.32
2023-05-14T23:42:41.376Z,3.72
2023-05-14T23:45:08.593Z,4.32
2023-05-14T23:47:35.782Z,4.30
2023-05-14T23:50:02.920Z,4.43
2023-05-14T23:52:29.897Z,4.40
2023-05-14T23:54:56.607Z,4.25
2023-05-14T23:57:23.573Z,4.40
2023-05-14T23:59:50.451Z,3.83
